Terminal Aerodrome Forecast
Issued by NWS

Home | Current Version | Previous Version | Text Only | Print | Product List | Glossary On
Versions: 1 2 3 4 5 6 7 8 9 10 11 12 13 14 15 16 17 18 19 20
000
FTUS45 KBOI 191404 AAC
TAFTWF
TAF AMD
KTWF 191404Z 1914/2012 17018G28KT 6SM -RA BR OVC030
      TEMPO 1914/1916 07006KT 2SM -RASN BR OVC020
     FM191800 17015KT 3SM -RASN BR SCT020 OVC040
      TEMPO 1918/1920 2SM -SHSN OVC020
     FM200200 18008KT P6SM OVC040=

USA.gov is the U.S. government's official web portal to all federal, state and local government web resources and services.